Time;durP1;ratioP1;P1;durP2;ratioP2;P2;SDS_P1;SDS_P2;PMS_P1;PMS_P2;Temp;Humidity;BMP_temperature;BMP_pressure;BME280_temperature;BME280_humidity;BME280_pressure;Samples;Min_cycle;Max_cycle;Signal;HPM_P1;HPM_P2
2022/08/20 00:02:21;;;;;;;11.95;8.02;;;;;;;18.83;100.00;101497.00;5014327;28;20073;-48
2022/08/20 00:04:46;;;;;;;10.40;7.97;;;;;;;18.85;100.00;101491.41;5015484;28;20083;-49
2022/08/20 00:07:13;;;;;;;13.57;8.27;;;;;;;18.86;100.00;101488.50;5016524;28;20240;-48
2022/08/20 00:09:40;;;;;;;15.15;8.57;;;;;;;18.87;100.00;101483.91;5016595;28;20033;-48
2022/08/20 00:12:06;;;;;;;11.82;8.43;;;;;;;18.86;100.00;101488.50;5015766;28;20599;-46
2022/08/20 00:14:32;;;;;;;12.23;7.78;;;;;;;18.85;100.00;101488.69;5016860;28;20515;-50
2022/08/20 00:16:58;;;;;;;13.00;7.55;;;;;;;18.85;100.00;101494.94;5016343;28;20176;-47
2022/08/20 00:19:23;;;;;;;12.82;7.47;;;;;;;18.86;100.00;101487.69;5014435;28;20025;-50
2022/08/20 00:21:48;;;;;;;11.77;7.00;;;;;;;18.90;100.00;101484.34;5015867;28;20025;-48
2022/08/20 00:24:13;;;;;;;12.43;7.15;;;;;;;18.94;100.00;101488.34;5015766;28;20022;-48
2022/08/20 00:26:39;;;;;;;11.98;7.40;;;;;;;18.97;100.00;101484.38;5015737;28;20025;-45
2022/08/20 00:29:04;;;;;;;12.75;6.97;;;;;;;18.97;100.00;101490.63;5015335;28;20143;-47
2022/08/20 00:31:30;;;;;;;11.30;6.68;;;;;;;18.95;100.00;101495.41;5016462;28;20025;-49
2022/08/20 00:33:55;;;;;;;9.43;6.55;;;;;;;18.94;100.00;101487.47;5015560;28;20845;-50
2022/08/20 00:36:21;;;;;;;13.65;6.70;;;;;;;18.96;100.00;101486.25;5026258;28;20021;-49
2022/08/20 00:38:47;;;;;;;11.93;6.53;;;;;;;18.99;100.00;101485.00;5034348;28;20509;-49
2022/08/20 00:41:22;;;;;;;11.43;6.78;;;;;;;19.05;100.00;101486.91;5033189;28;20028;-49
2022/08/20 00:44:06;;;;;;;10.95;6.75;;;;;;;19.10;100.00;101481.72;5035796;28;20017;-50
2022/08/20 00:46:33;;;;;;;10.07;6.88;;;;;;;19.11;100.00;101488.84;5035248;28;20196;-49
2022/08/20 00:49:01;;;;;;;11.23;6.97;;;;;;;19.11;100.00;101486.13;5032782;28;20482;-49
2022/08/20 00:51:26;;;;;;;10.73;7.20;;;;;;;19.13;100.00;101483.22;5035554;28;20024;-47
2022/08/20 00:54:01;;;;;;;9.90;6.53;;;;;;;19.08;100.00;101486.53;5035604;28;20044;-46
2022/08/20 00:56:26;;;;;;;12.15;7.43;;;;;;;19.08;100.00;101493.81;5035086;28;20783;-44
2022/08/20 00:58:53;;;;;;;12.00;6.80;;;;;;;19.11;100.00;101487.97;5035644;28;20112;-45
2022/08/20 01:01:20;;;;;;;9.35;6.65;;;;;;;19.11;100.00;101477.16;5034620;28;20415;-46
2022/08/20 01:03:45;;;;;;;11.52;6.65;;;;;;;19.14;100.00;101482.16;5035018;28;20212;-46
2022/08/20 01:06:10;;;;;;;11.80;6.85;;;;;;;19.11;100.00;101482.56;5033702;28;20078;-52
2022/08/20 01:08:37;;;;;;;11.40;6.93;;;;;;;19.10;100.00;101483.63;5034962;28;20033;-48
2022/08/20 01:11:09;;;;;;;12.80;6.97;;;;;;;19.13;100.00;101477.81;5035093;28;20082;-47
2022/08/20 01:13:37;;;;;;;12.52;6.88;;;;;;;19.09;100.00;101477.34;5035145;28;20032;-47
2022/08/20 01:16:08;;;;;;;9.32;6.82;;;;;;;19.05;100.00;101475.25;5034162;28;20102;-48
2022/08/20 01:18:35;;;;;;;10.65;6.60;;;;;;;19.04;100.00;101481.69;5034679;28;20025;-46
2022/08/20 01:21:03;;;;;;;13.70;7.03;;;;;;;19.00;100.00;101482.09;5035764;28;20029;-47
2022/08/20 01:23:40;;;;;;;12.05;7.28;;;;;;;19.00;100.00;101483.97;5035098;28;20134;-47
2022/08/20 01:26:29;;;;;;;10.57;6.65;;;;;;;18.96;100.00;101483.56;5016968;28;20040;-49
2022/08/20 01:28:58;;;;;;;11.30;6.60;;;;;;;18.97;100.00;101487.09;5014431;28;20116;-48
2022/08/20 01:31:27;;;;;;;11.07;6.60;;;;;;;18.98;100.00;101491.47;5014638;28;20570;-44
2022/08/20 01:33:55;;;;;;;11.50;7.70;;;;;;;18.98;100.00;101486.88;5013903;28;20476;-46
2022/08/20 01:36:25;;;;;;;11.13;6.65;;;;;;;18.98;100.00;101489.59;5014709;28;20704;-44
2022/08/20 01:38:51;;;;;;;8.98;6.63;;;;;;;18.98;100.00;101486.06;5013112;28;20047;-49
2022/08/20 01:41:22;;;;;;;11.68;6.97;;;;;;;18.98;100.00;101491.47;5014131;28;20107;-46
2022/08/20 01:43:49;;;;;;;9.70;6.65;;;;;;;19.00;100.00;101490.22;5013100;28;20138;-46
2022/08/20 01:46:16;;;;;;;9.25;6.50;;;;;;;18.98;100.00;101480.66;5014533;28;20122;-47
2022/08/20 01:48:43;;;;;;;11.50;6.78;;;;;;;18.97;100.00;101489.78;5014234;28;20052;-47
2022/08/20 01:51:16;;;;;;;13.57;7.10;;;;;;;18.93;100.00;101483.94;5013928;28;20029;-46
2022/08/20 01:53:47;;;;;;;13.95;7.18;;;;;;;18.93;100.00;101486.66;5014514;28;20156;-49
2022/08/20 01:56:16;;;;;;;10.90;6.90;;;;;;;18.89;100.00;101496.22;5013804;28;20021;-46
2022/08/20 01:58:45;;;;;;;10.02;7.03;;;;;;;18.91;100.00;101496.03;5013903;28;20406;-47
2022/08/20 02:01:31;;;;;;;9.15;6.85;;;;;;;18.89;100.00;101490.81;5013762;28;20029;-47
2022/08/20 02:03:58;;;;;;;11.25;6.55;;;;;;;18.90;100.00;101491.63;5016852;28;20507;-46
2022/08/20 02:06:25;;;;;;;12.25;6.70;;;;;;;18.90;100.00;101487.06;5034007;28;20394;-47
2022/08/20 02:08:56;;;;;;;13.32;7.35;;;;;;;18.90;100.00;101497.06;5033990;28;20029;-48
2022/08/20 02:11:22;;;;;;;9.48;6.65;;;;;;;18.89;100.00;101500.78;5033501;28;20044;-46
2022/08/20 02:13:51;;;;;;;11.18;6.65;;;;;;;18.90;100.00;101495.16;5033278;28;20029;-49
2022/08/20 02:16:21;;;;;;;9.00;6.45;;;;;;;18.85;100.00;101496.81;5032905;28;20025;-50
2022/08/20 02:18:53;;;;;;;11.70;6.88;;;;;;;18.87;100.00;101495.56;5033619;28;20175;-47
2022/08/20 02:21:20;;;;;;;11.18;6.60;;;;;;;18.86;100.00;101490.38;5034449;28;20218;-44
2022/08/20 02:23:45;;;;;;;9.88;6.53;;;;;;;18.84;100.00;101487.88;5034512;28;20736;-46
2022/08/20 02:26:11;;;;;;;11.05;6.88;;;;;;;18.87;100.00;101497.44;5032692;28;20021;-49
2022/08/20 02:28:36;;;;;;;15.65;7.85;;;;;;;18.86;100.00;101495.78;5031784;28;20032;-44
2022/08/20 02:31:06;;;;;;;10.75;7.63;;;;;;;18.90;100.00;101500.59;5034159;28;20455;-48
2022/08/20 02:33:31;;;;;;;12.68;7.75;;;;;;;18.90;100.00;101491.63;5033956;28;20476;-48
2022/08/20 02:35:57;;;;;;;18.48;8.38;;;;;;;18.89;100.00;101487.25;5034209;28;20089;-47
2022/08/20 02:38:23;;;;;;;11.30;8.05;;;;;;;18.90;100.00;101488.94;5033397;28;20094;-43
2022/08/20 02:40:48;;;;;;;15.68;8.52;;;;;;;18.88;100.00;101491.00;5033201;28;20114;-44
2022/08/20 02:43:18;;;;;;;13.38;8.13;;;;;;;18.88;100.00;101491.84;5033109;28;20025;-49
2022/08/20 02:45:44;;;;;;;11.60;7.73;;;;;;;18.88;100.00;101493.72;5031998;28;20108;-48
2022/08/20 02:48:19;;;;;;;13.82;7.82;;;;;;;18.90;100.00;101494.34;5013224;28;20171;-46
2022/08/20 02:50:50;;;;;;;15.65;7.30;;;;;;;18.88;100.00;101504.53;5014394;28;20163;-46
2022/08/20 02:53:16;;;;;;;18.13;8.80;;;;;;;18.87;100.00;101508.28;5014146;28;20025;-48
2022/08/20 02:55:42;;;;;;;14.27;8.45;;;;;;;18.85;100.00;101502.22;5012625;28;20029;-45
2022/08/20 02:58:07;;;;;;;14.27;8.25;;;;;;;18.81;100.00;101499.06;5013305;28;20025;-48
2022/08/20 03:00:33;;;;;;;15.98;8.52;;;;;;;18.77;100.00;101503.19;5013381;28;20029;-47
2022/08/20 03:02:59;;;;;;;15.40;8.65;;;;;;;18.72;100.00;101495.69;5013609;28;20046;-50
2022/08/20 03:05:25;;;;;;;16.90;9.20;;;;;;;18.73;100.00;101501.94;5012643;28;20040;-49
2022/08/20 03:07:58;;;;;;;18.63;9.55;;;;;;;18.70;100.00;101502.31;5013865;28;20492;-49
2022/08/20 03:10:26;;;;;;;20.20;9.20;;;;;;;18.66;100.00;101504.59;5012546;28;20040;-47
2022/08/20 03:12:52;;;;;;;14.60;9.73;;;;;;;18.67;100.00;101498.16;5012095;28;20025;-46
2022/08/20 03:15:19;;;;;;;18.17;9.45;;;;;;;18.72;100.00;101502.94;5011378;28;20104;-49
2022/08/20 03:17:44;;;;;;;21.63;10.30;;;;;;;18.73;100.00;101500.03;5012231;28;20509;-48
2022/08/20 03:20:10;;;;;;;23.35;10.07;;;;;;;18.67;100.00;101500.00;5013002;28;20060;-50
2022/08/20 03:22:36;;;;;;;21.35;10.02;;;;;;;18.68;100.00;101504.41;5013891;28;20392;-49
2022/08/20 03:25:02;;;;;;;25.15;11.20;;;;;;;18.65;100.00;101494.78;5013058;28;20275;-46
2022/08/20 03:27:27;;;;;;;22.08;10.90;;;;;;;18.66;100.00;101498.34;5012206;28;20056;-48
2022/08/20 03:29:52;;;;;;;23.20;11.32;;;;;;;18.63;100.00;101500.44;5013227;28;20101;-45
2022/08/20 03:32:18;;;;;;;20.08;11.50;;;;;;;18.64;100.00;101502.06;5011626;28;20034;-46
2022/08/20 03:34:43;;;;;;;24.67;11.57;;;;;;;18.66;100.00;101506.47;5013550;28;20029;-47
2022/08/20 03:37:10;;;;;;;25.42;12.52;;;;;;;18.61;100.00;101513.28;5013414;28;20479;-49
2022/08/20 03:39:36;;;;;;;21.02;12.25;;;;;;;18.62;100.00;101508.75;5016797;28;20033;-48
2022/08/20 03:42:01;;;;;;;23.90;12.55;;;;;;;18.58;100.00;101510.97;5016345;28;20415;-48
2022/08/20 03:44:27;;;;;;;25.33;11.73;;;;;;;18.60;100.00;101508.94;5014547;28;20022;-45
2022/08/20 03:46:53;;;;;;;28.35;13.60;;;;;;;18.60;100.00;101506.22;5016974;28;20052;-46
2022/08/20 03:49:18;;;;;;;30.17;14.10;;;;;;;18.59;100.00;101509.13;5016074;28;20029;-46
2022/08/20 03:51:43;;;;;;;32.55;14.13;;;;;;;18.53;100.00;101505.31;5017589;28;20087;-48
2022/08/20 03:54:09;;;;;;;29.83;14.40;;;;;;;18.52;100.00;101514.50;5016627;28;20373;-46
2022/08/20 03:56:34;;;;;;;28.80;14.43;;;;;;;18.48;100.00;101504.25;5016153;28;20048;-47
2022/08/20 03:58:59;;;;;;;36.80;15.43;;;;;;;18.44;100.00;101511.94;5016613;28;20346;-48
2022/08/20 04:01:25;;;;;;;33.42;15.48;;;;;;;18.44;100.00;101510.06;5015251;28;20426;-49
2022/08/20 04:03:50;;;;;;;25.50;14.57;;;;;;;18.44;100.00;101509.22;5015238;28;20044;-51
2022/08/20 04:06:16;;;;;;;31.02;14.90;;;;;;;18.43;100.00;101504.84;5016850;28;20548;-45
2022/08/20 04:08:41;;;;;;;31.38;15.30;;;;;;;18.44;100.00;101511.94;5016813;28;20148;-45
2022/08/20 04:11:07;;;;;;;31.50;15.98;;;;;;;18.39;100.00;101517.91;5015482;28;20337;-48
2022/08/20 04:13:33;;;;;;;31.85;15.38;;;;;;;18.41;100.00;101515.03;5017145;28;20021;-44
2022/08/20 04:16:07;;;;;;;28.35;16.30;;;;;;;18.35;100.00;101519.34;5016044;28;20026;-48
2022/08/20 04:18:35;;;;;;;31.00;16.02;;;;;;;18.34;100.00;101511.44;5015607;28;20125;-45
2022/08/20 04:21:02;;;;;;;31.85;16.48;;;;;;;18.31;100.00;101528.88;5016662;28;20120;-48
2022/08/20 04:23:29;;;;;;;35.25;15.98;;;;;;;18.32;100.00;101535.16;5015779;28;20064;-49
2022/08/20 04:25:55;;;;;;;27.83;15.98;;;;;;;18.32;100.00;101529.72;5015574;28;20221;-45
2022/08/20 04:28:25;;;;;;;33.38;16.52;;;;;;;18.30;100.00;101526.41;5016321;28;20033;-45
2022/08/20 04:30:52;;;;;;;35.63;16.90;;;;;;;18.26;100.00;101529.50;5014598;28;20032;-46
2022/08/20 04:33:23;;;;;;;31.80;16.45;;;;;;;18.25;100.00;101532.38;5057001;28;20013;-47
2022/08/20 04:35:49;;;;;;;36.35;16.35;;;;;;;18.25;100.00;101535.09;5026618;28;20021;-47
2022/08/20 04:38:17;;;;;;;35.15;16.98;;;;;;;18.21;100.00;101539.19;5016132;28;20017;-49
2022/08/20 04:40:53;;;;;;;34.22;16.98;;;;;;;18.25;100.00;101540.50;5015244;28;20026;-49
2022/08/20 04:43:21;;;;;;;32.05;16.95;;;;;;;18.24;100.00;101544.22;5015477;28;20049;-47
2022/08/20 04:45:47;;;;;;;29.52;16.70;;;;;;;18.22;100.00;101547.13;5015362;28;20113;-45
2022/08/20 04:48:13;;;;;;;40.67;16.70;;;;;;;18.17;100.00;101546.03;5014464;28;20104;-48
2022/08/20 04:50:41;;;;;;;34.13;16.23;;;;;;;18.17;100.00;101551.44;5015446;28;20400;-45
2022/08/20 04:53:09;;;;;;;35.20;17.27;;;;;;;18.13;100.00;101553.69;5015553;28;20060;-45
2022/08/20 04:55:38;;;;;;;31.40;16.67;;;;;;;18.10;100.00;101555.97;5014805;28;20481;-48
2022/08/20 04:58:08;;;;;;;32.38;16.52;;;;;;;18.07;100.00;101567.97;5015249;28;20413;-49
2022/08/20 05:00:34;;;;;;;28.83;16.33;;;;;;;18.03;100.00;101566.69;5015033;28;20029;-44
2022/08/20 05:03:00;;;;;;;34.33;16.30;;;;;;;18.02;100.00;101565.03;5015469;28;20037;-49
2022/08/20 05:05:26;;;;;;;31.02;16.33;;;;;;;17.99;100.00;101568.09;5014380;28;20088;-48
2022/08/20 05:07:52;;;;;;;31.15;15.80;;;;;;;17.95;100.00;101569.53;5027875;28;20063;-47
2022/08/20 05:10:18;;;;;;;29.95;15.70;;;;;;;17.95;100.00;101572.22;5033921;28;20068;-46
2022/08/20 05:12:44;;;;;;;31.65;15.15;;;;;;;17.91;100.00;101577.19;5034786;28;20056;-49
2022/08/20 05:15:11;;;;;;;30.65;15.57;;;;;;;17.86;100.00;101579.59;5033254;28;20024;-49
2022/08/20 05:17:38;;;;;;;31.13;15.40;;;;;;;17.82;100.00;101589.09;5034446;28;20028;-50
2022/08/20 05:20:05;;;;;;;30.83;15.45;;;;;;;17.83;100.00;101580.78;5033998;28;20029;-46
2022/08/20 05:22:31;;;;;;;28.80;15.45;;;;;;;17.81;100.00;101580.16;5035235;28;20043;-50
2022/08/20 05:24:58;;;;;;;29.17;15.52;;;;;;;17.86;100.00;101574.19;5033965;28;20021;-48
2022/08/20 05:27:25;;;;;;;29.10;14.95;;;;;;;17.88;100.00;101581.09;5033386;28;20448;-44
2022/08/20 05:29:53;;;;;;;32.88;15.77;;;;;;;17.89;100.00;101588.19;5031600;28;20029;-48
2022/08/20 05:32:19;;;;;;;29.33;15.93;;;;;;;17.91;100.00;101584.47;5034093;28;20435;-49
2022/08/20 05:34:44;;;;;;;28.88;15.35;;;;;;;17.91;100.00;101587.16;5034660;28;20024;-46
2022/08/20 05:37:09;;;;;;;29.05;15.77;;;;;;;17.90;100.00;101586.31;5034807;28;20475;-48
2022/08/20 05:39:35;;;;;;;33.30;15.75;;;;;;;17.92;100.00;101589.66;5033292;28;20035;-46
2022/08/20 05:42:00;;;;;;;29.52;15.60;;;;;;;17.94;100.00;101592.16;5034118;28;20033;-48
2022/08/20 05:44:26;;;;;;;34.05;16.42;;;;;;;17.97;100.00;101591.78;5033096;28;20321;-47
2022/08/20 05:46:51;;;;;;;32.72;15.52;;;;;;;18.02;100.00;101595.56;5022884;28;20021;-48
2022/08/20 05:49:19;;;;;;;29.80;15.73;;;;;;;18.08;100.00;101599.41;5014159;28;20056;-47
2022/08/20 05:51:44;;;;;;;31.33;16.52;;;;;;;18.10;100.00;101599.22;5015342;28;20349;-50
2022/08/20 05:54:10;;;;;;;35.17;15.68;;;;;;;18.09;100.00;101590.25;5014121;28;20033;-49
2022/08/20 05:56:36;;;;;;;27.10;15.95;;;;;;;18.17;100.00;101603.63;5013833;28;20404;-49
2022/08/20 05:59:04;;;;;;;28.42;15.60;;;;;;;18.17;100.00;101598.22;5014694;28;20060;-49
2022/08/20 06:01:34;;;;;;;27.40;15.30;;;;;;;18.18;100.00;101599.09;5014106;28;20029;-44
2022/08/20 06:06:44;;;;;;;28.88;15.52;;;;;;;18.22;100.00;101606.59;5015129;28;20466;-48
2022/08/20 06:09:09;;;;;;;33.67;15.38;;;;;;;18.28;100.00;101605.00;5014070;28;20097;-49
2022/08/20 06:11:35;;;;;;;34.47;14.98;;;;;;;18.29;100.00;101612.06;5013687;28;20036;-48
2022/08/20 06:14:01;;;;;;;30.55;14.70;;;;;;;18.27;100.00;101604.16;5014580;28;20025;-43
2022/08/20 06:16:26;;;;;;;34.70;15.63;;;;;;;18.27;100.00;101604.16;5012908;28;20068;-47
2022/08/20 06:18:51;;;;;;;33.22;15.15;;;;;;;18.26;100.00;101598.94;5028144;28;20028;-49
2022/08/20 06:21:17;;;;;;;33.95;14.75;;;;;;;18.26;100.00;101605.19;5034603;28;20024;-49
2022/08/20 06:23:42;;;;;;;30.25;14.52;;;;;;;18.27;100.00;101606.84;5034032;28;20028;-45
2022/08/20 06:26:08;;;;;;;29.52;14.38;;;;;;;18.22;100.00;101609.31;5033372;28;20430;-43
2022/08/20 06:28:34;;;;;;;32.55;15.05;;;;;;;18.17;100.00;101603.63;5034274;28;20430;-47
2022/08/20 06:30:59;;;;;;;34.70;14.98;;;;;;;18.27;100.00;101612.25;5033864;28;20104;-47
2022/08/20 06:33:25;;;;;;;28.65;13.77;;;;;;;18.33;100.00;101599.00;5031915;28;20369;-45
2022/08/20 06:35:50;;;;;;;31.42;14.85;;;;;;;18.35;100.00;101603.19;5024393;28;20033;-47
2022/08/20 06:38:15;;;;;;;28.77;14.75;;;;;;;18.33;100.00;101607.97;5014299;28;20040;-47
2022/08/20 06:40:41;;;;;;;25.48;14.98;;;;;;;18.35;100.00;101603.19;5013331;28;20044;-46
2022/08/20 06:43:07;;;;;;;31.45;14.95;;;;;;;18.35;100.00;101600.50;5012317;28;20095;-45
2022/08/20 06:45:34;;;;;;;28.58;15.00;;;;;;;18.30;100.00;101608.34;5013488;28;20112;-44
2022/08/20 06:48:04;;;;;;;28.85;14.73;;;;;;;18.43;100.00;101615.72;5014352;28;20025;-49
2022/08/20 06:50:37;;;;;;;27.85;14.30;;;;;;;18.52;100.00;101617.28;5011531;28;20486;-47
2022/08/20 06:53:04;;;;;;;23.15;13.35;;;;;;;18.54;100.00;101617.09;5014406;28;20029;-50
2022/08/20 06:55:29;;;;;;;25.80;13.27;;;;;;;18.56;100.00;101618.56;5013422;28;20111;-47
2022/08/20 06:58:06;;;;;;;28.42;13.27;;;;;;;18.54;100.00;101612.50;5014469;28;20461;-46
2022/08/20 07:00:33;;;;;;;29.45;13.48;;;;;;;18.59;100.00;101618.16;5013506;28;20025;-49
2022/08/20 07:03:00;;;;;;;27.15;12.93;;;;;;;18.64;100.00;101621.13;5011108;28;20034;-48
2022/08/20 07:05:30;;;;;;;24.17;12.93;;;;;;;18.67;100.00;101616.34;5028461;28;20020;-48
2022/08/20 07:07:56;;;;;;;25.08;12.80;;;;;;;18.72;100.00;101625.56;5019590;28;20487;-48
2022/08/20 07:10:23;;;;;;;25.50;12.55;;;;;;;18.76;100.00;101624.13;5012151;28;20033;-45
2022/08/20 07:12:49;;;;;;;20.52;11.82;;;;;;;18.77;100.00;101630.38;5016477;28;20508;-48
2022/08/20 07:15:15;;;;;;;23.75;11.65;;;;;;;18.79;100.00;101628.31;5016729;28;20912;-48
2022/08/20 07:17:41;;;;;;;22.50;11.70;;;;;;;18.77;100.00;101631.22;5016622;28;20036;-49
2022/08/20 07:20:16;;;;;;;23.23;11.50;;;;;;;18.80;100.00;101629.97;5014861;28;20444;-49
2022/08/20 07:22:42;;;;;;;22.30;11.50;;;;;;;18.83;100.00;101635.88;5017672;28;20069;-49
2022/08/20 07:25:10;;;;;;;19.25;11.15;;;;;;;18.89;100.00;101644.22;5015975;28;20103;-49
2022/08/20 07:27:35;;;;;;;19.17;9.98;;;;;;;18.87;100.00;101641.72;5017149;28;20348;-49
2022/08/20 07:32:52;;;;;;;17.92;10.00;;;;;;;18.82;100.00;101650.44;5000634;28;20463;-49
2022/08/20 07:35:18;;;;;;;18.58;10.07;;;;;;;19.06;100.00;101651.03;5016463;28;20022;-47
2022/08/20 07:37:47;;;;;;;18.40;9.80;;;;;;;19.15;100.00;101647.13;5017387;28;20116;-45
2022/08/20 07:40:16;;;;;;;15.82;9.20;;;;;;;19.33;100.00;101662.88;5015393;28;20047;-46
2022/08/20 07:42:42;;;;;;;17.98;9.00;;;;;;;19.68;100.00;101664.72;5016164;28;20033;-49
2022/08/20 07:45:13;;;;;;;16.90;9.02;;;;;;;19.93;100.00;101659.66;5015193;28;20036;-49
2022/08/20 07:47:41;;;;;;;14.77;7.93;;;;;;;19.89;100.00;101663.78;5016138;28;20087;-46
2022/08/20 07:50:08;;;;;;;15.82;7.75;;;;;;;19.63;100.00;101667.19;5016079;28;20086;-43
2022/08/20 07:52:34;;;;;;;14.88;8.38;;;;;;;19.64;100.00;101663.47;5016844;28;20059;-45
2022/08/20 07:55:04;;;;;;;15.27;8.00;;;;;;;19.87;100.00;101674.00;5016262;28;20022;-49
2022/08/20 07:57:30;;;;;;;14.77;7.30;;;;;;;19.90;100.00;101684.44;5047703;28;20074;-50
2022/08/20 07:59:57;;;;;;;15.15;7.53;;;;;;;19.80;100.00;101678.56;5027207;28;20491;-48
2022/08/20 08:02:23;;;;;;;10.85;7.03;;;;;;;19.68;100.00;101687.22;5028083;28;20050;-48
2022/08/20 08:04:49;;;;;;;13.93;7.07;;;;;;;19.80;100.00;101689.41;5016042;28;20330;-47
2022/08/20 08:07:15;;;;;;;15.15;7.30;;;;;;;19.89;100.00;101693.59;5016779;28;20465;-44
2022/08/20 08:09:43;;;;;;;11.40;6.45;;;;;;;20.07;100.00;101693.06;5016123;28;20083;-49
2022/08/20 08:12:10;;;;;;;13.30;6.30;;;;;;;20.17;100.00;101687.25;5016507;28;20623;-48
2022/08/20 08:14:37;;;;;;;10.48;6.20;;;;;;;20.27;100.00;101690.41;5015269;28;20017;-49
2022/08/20 08:17:04;;;;;;;15.00;6.25;;;;;;;20.38;100.00;101683.53;5016458;28;20041;-48
2022/08/20 08:19:37;;;;;;;12.27;6.45;;;;;;;20.43;100.00;101695.44;5016109;28;20387;-48
2022/08/20 08:22:05;;;;;;;12.15;6.40;;;;;;;20.46;100.00;101700.44;5016858;28;20565;-50
2022/08/20 08:24:30;;;;;;;11.68;6.00;;;;;;;20.59;100.00;101696.94;5014523;28;20434;-51
2022/08/20 08:26:56;;;;;;;13.05;5.60;;;;;;;20.79;100.00;101691.56;5016692;28;20512;-48
2022/08/20 08:29:21;;;;;;;13.32;6.38;;;;;;;20.85;100.00;101698.84;5012955;28;20091;-48
2022/08/20 08:31:46;;;;;;;9.20;5.47;;;;;;;20.66;100.00;101692.38;5016346;28;20029;-49
2022/08/20 08:34:12;;;;;;;10.38;5.82;;;;;;;20.54;100.00;101699.44;5015196;28;20387;-51
2022/08/20 08:36:38;;;;;;;9.75;5.22;;;;;;;20.89;100.00;101696.56;5031380;28;20524;-51
2022/08/20 08:39:04;;;;;;;9.40;5.38;;;;;;;20.96;100.00;101697.41;5035364;28;20025;-49
2022/08/20 08:41:34;;;;;;;8.90;4.93;;;;;;;21.10;100.00;101702.84;5035308;28;20013;-50
2022/08/20 08:44:22;;;;;;;12.68;5.32;;;;;;;21.22;100.00;101706.59;5034572;28;20119;-49
2022/08/20 08:46:55;;;;;;;13.40;5.30;;;;;;;21.28;100.00;101699.47;5035345;28;20117;-51
2022/08/20 08:49:29;;;;;;;10.32;5.25;;;;;;;21.36;100.00;101701.94;5034314;28;20035;-51
2022/08/20 08:52:03;;;;;;;10.65;5.35;;;;;;;21.49;100.00;101701.13;5036175;28;20029;-49
2022/08/20 08:54:30;;;;;;;11.38;5.07;;;;;;;21.59;100.00;101706.97;5034529;28;20511;-49
2022/08/20 08:56:57;;;;;;;13.52;4.90;;;;;;;21.58;100.00;101708.81;5035645;28;20052;-46
2022/08/20 08:59:23;;;;;;;9.73;5.07;;;;;;;21.63;100.00;101712.81;5034515;28;20452;-47
2022/08/20 09:01:51;;;;;;;11.73;5.05;;;;;;;21.64;100.00;101711.72;5035088;28;20106;-48
2022/08/20 09:04:21;;;;;;;11.57;4.95;;;;;;;21.67;100.00;101711.31;5034341;28;20541;-45
2022/08/20 09:06:49;;;;;;;8.15;4.40;;;;;;;21.90;100.00;101719.81;5034679;28;20488;-50
2022/08/20 09:09:34;;;;;;;9.23;5.55;;;;;;;21.91;100.00;101720.63;5032640;28;20430;-50
2022/08/20 09:12:11;;;;;;;12.45;5.55;;;;;;;21.94;100.00;101715.59;5035701;28;20321;-47
2022/08/20 09:14:37;;;;;;;11.55;5.55;;;;;;;22.06;100.00;101714.94;5035190;28;20143;-50
2022/08/20 09:17:03;;;;;;;12.27;5.45;;;;;;;22.17;100.00;101717.81;5034144;28;20082;-51
2022/08/20 09:19:28;;;;;;;9.73;5.85;;;;;;;22.26;100.00;101725.72;5014681;28;20022;-49
2022/08/20 09:21:53;;;;;;;12.25;4.93;;;;;;;22.42;100.00;101713.50;5015254;28;20037;-50
2022/08/20 09:24:19;;;;;;;11.85;5.20;;;;;;;22.45;100.00;101722.06;5013611;28;20028;-48
2022/08/20 09:26:44;;;;;;;7.40;4.40;;;;;;;22.54;100.00;101717.22;5015507;28;20025;-49
2022/08/20 09:29:10;;;;;;;9.20;4.78;;;;;;;22.61;100.00;101718.00;5014443;28;20295;-49
2022/08/20 09:31:36;;;;;;;9.25;5.10;;;;;;;22.73;100.00;101718.13;5014862;28;20045;-46
2022/08/20 09:34:01;;;;;;;9.15;5.05;;;;;;;22.89;100.00;101709.38;5013500;28;20142;-47
2022/08/20 09:36:26;;;;;;;12.73;5.05;;;;;;;22.88;100.00;101713.19;5014593;28;20564;-50
2022/08/20 09:38:52;;;;;;;11.55;5.47;;;;;;;22.84;99.19;101702.94;5013563;28;20051;-49
2022/08/20 09:41:18;;;;;;;9.82;4.90;;;;;;;22.94;97.34;101716.06;5014018;28;20466;-47
2022/08/20 09:43:43;;;;;;;8.77;5.30;;;;;;;23.12;98.98;101698.97;5014229;28;20101;-52
2022/08/20 09:46:09;;;;;;;12.30;4.63;;;;;;;23.29;96.82;101705.50;5014477;28;20087;-48
2022/08/20 09:48:34;;;;;;;8.55;4.70;;;;;;;23.28;97.06;101695.66;5013697;28;20029;-49
2022/08/20 09:51:00;;;;;;;10.23;4.70;;;;;;;23.12;94.50;101702.53;5015287;28;20025;-49
2022/08/20 09:53:25;;;;;;;6.68;3.88;;;;;;;23.29;95.44;101700.06;5012411;28;20021;-49
2022/08/20 09:55:53;;;;;;;10.45;3.67;;;;;;;23.36;92.56;101700.81;5014023;28;20109;-49
2022/08/20 09:58:29;;;;;;;7.68;3.00;;;;;;;23.11;83.67;101703.56;5014977;28;20456;-46
2022/08/20 10:00:55;;;;;;;8.48;2.00;;;;;;;22.77;80.99;101704.91;5013777;28;20041;-49
2022/08/20 10:03:20;;;;;;;12.85;1.90;;;;;;;22.44;80.81;101708.69;5013701;28;20064;-46
2022/08/20 10:05:46;;;;;;;9.25;2.33;;;;;;;22.16;78.43;101718.84;5013794;28;20089;-49
2022/08/20 10:08:12;;;;;;;6.50;1.75;;;;;;;22.58;79.50;101707.53;5013652;28;20025;-47
2022/08/20 10:10:38;;;;;;;8.02;2.08;;;;;;;22.95;76.10;101709.56;5013564;28;20336;-49
2022/08/20 10:13:04;;;;;;;10.80;1.98;;;;;;;23.33;73.21;101703.16;5014622;28;20022;-48
2022/08/20 10:15:30;;;;;;;6.50;1.67;;;;;;;23.69;70.64;101705.06;5011958;28;20025;-49
2022/08/20 10:17:58;;;;;;;8.32;1.83;;;;;;;24.06;74.26;101705.06;5013673;28;20104;-46
2022/08/20 10:20:24;;;;;;;8.60;1.98;;;;;;;24.24;69.15;101708.78;5013544;28;20039;-48
2022/08/20 10:22:50;;;;;;;7.97;1.83;;;;;;;24.41;68.42;101698.91;5013554;28;20428;-51
2022/08/20 10:25:16;;;;;;;8.52;2.03;;;;;;;24.43;65.37;101710.41;5012874;28;20656;-48
2022/08/20 10:27:42;;;;;;;8.15;1.92;;;;;;;24.25;68.60;101714.03;5014288;28;20033;-51
2022/08/20 10:30:08;;;;;;;5.25;1.65;;;;;;;24.20;70.17;101708.44;5013262;28;20328;-50
2022/08/20 10:32:34;;;;;;;6.90;1.92;;;;;;;24.60;70.17;101710.63;5014174;28;20029;-49
2022/08/20 10:34:59;;;;;;;5.43;1.58;;;;;;;24.71;69.03;101701.63;5013954;28;20421;-50
2022/08/20 10:37:25;;;;;;;5.25;1.70;;;;;;;24.54;69.50;101709.66;5014088;28;20041;-49
2022/08/20 10:39:51;;;;;;;8.10;1.70;;;;;;;24.54;67.77;101712.41;5013006;28;20026;-50
2022/08/20 10:42:16;;;;;;;6.82;1.50;;;;;;;24.85;71.11;101715.06;5013540;28;20025;-49
2022/08/20 10:44:42;;;;;;;7.50;1.58;;;;;;;24.57;65.33;101714.63;5012941;28;20069;-48
2022/08/20 10:47:26;;;;;;;6.18;1.70;;;;;;;24.14;70.54;101718.38;5014479;28;20828;-50
2022/08/20 10:49:54;;;;;;;5.38;1.45;;;;;;;23.95;67.40;101712.13;5017849;28;20171;-50
2022/08/20 10:52:20;;;;;;;9.73;1.75;;;;;;;24.15;68.61;101719.22;5017571;28;20540;-49
2022/08/20 10:54:46;;;;;;;10.50;1.77;;;;;;;24.49;64.93;101720.44;5016737;28;20139;-46
2022/08/20 10:57:18;;;;;;;7.82;1.73;;;;;;;25.00;67.41;101718.19;5016110;28;20119;-49
2022/08/20 10:59:45;;;;;;;5.45;1.35;;;;;;;25.21;59.66;101713.19;5017631;28;20025;-49
2022/08/20 11:02:11;;;;;;;6.10;1.52;;;;;;;25.67;65.26;101711.50;5016907;28;20042;-48
2022/08/20 11:04:37;;;;;;;8.60;1.60;;;;;;;25.81;55.71;101715.59;5015831;28;20037;-47
2022/08/20 11:07:33;;;;;;;7.80;1.80;;;;;;;25.87;58.43;101714.66;5019047;28;20022;-49
2022/08/20 11:09:58;;;;;;;4.90;1.70;;;;;;;25.35;53.18;101716.53;5016093;28;20463;-50
2022/08/20 11:12:24;;;;;;;6.97;1.80;;;;;;;24.94;51.80;101713.66;5017496;28;20582;-51
2022/08/20 11:14:51;;;;;;;7.97;1.92;;;;;;;25.04;52.51;101716.63;5016988;28;20053;-47
2022/08/20 11:17:22;;;;;;;4.88;1.50;;;;;;;25.10;52.26;101714.84;5016882;28;20110;-50